Leesburg, VA

05:39 AM EDT on April 26, 2015 (GMT -0400)
Washington Dulles International | | Change Station
CLOSE
Current Station
Airport
Location: Dulles Airport,
Elevation: 322 ft
Nearby Weather Stations

Elev 322 ft 38.93 °N, 77.45 °W | Updated 47 minutes ago

Molnigt
Molnigt
42 °F
Feels Like 38 °F
N
7
Vind Växlande Vind from Nordlig

Idag
High -- | Low -- °F
--% Chance of Precip.
Yesterday
High -- | Low -- °F
Precip. -- tum
6:18 AM 7:58 PM
Första kvarteret, 54% visible
Lufttryck 29.69 tum
Sikt 10.0 miles
Molnigt Few 800 ft
Molnigt 6500 ft
Vindavkylning 38 °F
Daggpunkt 39 °F
Luftfuktighet 89%
Rainfall 0.00 tum
Snow Depth Not available.
UV 0 out of 12
Pollen 9.00 out of 12
Air Quality Not available.
Flu Activity Sporadic
METAR KIAD 260852Z 36006KT 10SM FEW008 OVC065 06/04 A2969 RMK AO2 SLP053 T00560039 50001

More Conditions Fewer Conditions

Lufttryck 29.69 tum
Sikt 10.0 miles
Molnigt Few 800 ft
Molnigt 6500 ft
Vindavkylning 38 °F
Daggpunkt 39 °F
Luftfuktighet 89%
Rainfall 0.00 tum
Snow Depth Not available.
UV 0 out of 12
Pollen 9.00 out of 12
Air Quality Not available.
Flu Activity Sporadic
METAR KIAD 260852Z 36006KT 10SM FEW008 OVC065 06/04 A2969 RMK AO2 SLP053 T00560039 50001

More Conditions Fewer Conditions

The full scope of the disaster following a powerful 7.8-magnitude earthquake in Nepal may not come into view for days, but global charities are already sending emergency aid. Click to see how you can help.

10-Day Weather Forecast

Almanac

Astronomi

Apr. 26, 2015 Rise Set
Actual Time
Civil Twilight
Nautical Twilight
Astronomical Twilight
Månen
Length Of Visible Light
Dagens längd
Tomorrow will be .
, % of the Moon is Illuminated

Today's Extremes

State Highs State Lows

Community

WunderPhotos

Upload Photos

1,816,953 photos uploaded!

WunderBlogs® & News

Nearby

Air Quality

  Air Quality AQ Index Pollutant
Not available.

Snödjup

Station Depth Elevation

Earthquake Activity

Stad Distance Mag. Time & Date
Minimum magnitude displayed is 2.5.

Coastal Water Temperatures

Plats Temperatur

Stations

Nearby Weather Stations

Station Location Temp Vindavkylning Daggpunkt Luftfuktighet Vind Precip. Elev Uppdaterad Type